createdAt,value
2023-01-03T00:01:47.785Z,6.63
2023-01-03T00:04:16.021Z,5.75
2023-01-03T00:06:45.632Z,5.15
2023-01-03T00:09:14.329Z,5.32
2023-01-03T00:12:04.207Z,4.93
2023-01-03T00:14:33.456Z,4.17
2023-01-03T00:17:02.287Z,6.75
2023-01-03T00:19:32.895Z,4.43
2023-01-03T00:22:00.180Z,4.97
2023-01-03T00:24:27.794Z,6.50
2023-01-03T00:26:56.423Z,5.23
2023-01-03T00:29:23.661Z,4.88
2023-01-03T00:31:50.904Z,5.88
2023-01-03T00:34:18.130Z,6.38
2023-01-03T00:36:45.457Z,6.75
2023-01-03T00:39:13.007Z,6.60
2023-01-03T00:41:41.095Z,4.85
2023-01-03T00:44:09.672Z,4.55
2023-01-03T00:46:37.257Z,5.78
2023-01-03T00:49:05.621Z,6.28
2023-01-03T00:51:35.063Z,4.77
2023-01-03T00:54:03.625Z,5.38
2023-01-03T00:56:33.667Z,7.10
2023-01-03T00:59:01.704Z,6.75
2023-01-03T01:01:32.115Z,5.05
2023-01-03T01:04:03.265Z,4.20
2023-01-03T01:06:32.063Z,4.68
2023-01-03T01:09:01.176Z,4.35
2023-01-03T01:11:29.136Z,4.47
2023-01-03T01:13:57.005Z,5.45
2023-01-03T01:16:32.702Z,5.33
2023-01-03T01:19:01.377Z,5.25
2023-01-03T01:21:30.389Z,5.82
2023-01-03T01:23:59.228Z,7.63
2023-01-03T01:26:26.996Z,5.35
2023-01-03T01:28:55.228Z,5.93
2023-01-03T01:31:24.804Z,4.53
2023-01-03T01:33:53.044Z,4.97
2023-01-03T01:36:23.006Z,4.15
2023-01-03T01:38:54.959Z,4.72
2023-01-03T01:41:41.491Z,6.37
2023-01-03T01:44:40.388Z,5.85
2023-01-03T01:47:13.899Z,6.05
2023-01-03T01:49:41.941Z,4.97
2023-01-03T01:52:11.276Z,4.45
2023-01-03T01:54:40.522Z,4.40
2023-01-03T01:57:12.110Z,4.53
2023-01-03T01:59:39.350Z,5.30
2023-01-03T02:02:07.670Z,4.72
2023-01-03T02:04:38.396Z,3.30
2023-01-03T02:07:06.820Z,3.53
2023-01-03T02:09:35.554Z,4.32
2023-01-03T02:12:33.197Z,3.95
2023-01-03T02:15:13.129Z,5.78
2023-01-03T02:17:51.530Z,7.00
2023-01-03T02:20:30.292Z,5.10
2023-01-03T02:23:49.005Z,5.18
2023-01-03T02:26:41.729Z,4.55
2023-01-03T02:30:01.891Z,5.35
2023-01-03T02:32:36.643Z,3.65
2023-01-03T02:35:08.760Z,5.33
2023-01-03T02:37:42.521Z,4.18
2023-01-03T02:40:20.365Z,4.90
2023-01-03T02:43:02.251Z,4.45
2023-01-03T02:45:43.633Z,4.10
2023-01-03T02:48:15.037Z,6.80
2023-01-03T02:50:48.152Z,4.10
2023-01-03T02:53:21.920Z,3.85
2023-01-03T02:55:52.324Z,3.97
2023-01-03T02:58:23.224Z,3.50
2023-01-03T03:00:55.891Z,4.60
2023-01-03T03:03:26.429Z,5.30
2023-01-03T03:05:59.808Z,4.03
2023-01-03T03:08:27.070Z,4.60
2023-01-03T03:11:14.383Z,4.05
2023-01-03T03:13:47.712Z,3.70
2023-01-03T03:16:41.085Z,4.85
2023-01-03T03:19:42.208Z,4.78
2023-01-03T03:22:38.590Z,3.92
2023-01-03T03:25:10.586Z,5.15
2023-01-03T03:28:00.489Z,5.13
2023-01-03T03:30:30.434Z,4.15
2023-01-03T03:33:06.248Z,8.68
2023-01-03T03:35:41.077Z,7.03
2023-01-03T03:38:13.331Z,3.80
2023-01-03T03:41:08.958Z,7.17
2023-01-03T03:44:01.213Z,3.95
2023-01-03T03:46:33.669Z,4.60
2023-01-03T03:49:26.788Z,5.72
2023-01-03T03:51:57.347Z,7.20
2023-01-03T03:54:26.166Z,4.57
2023-01-03T03:57:00.126Z,4.82
2023-01-03T03:59:28.761Z,4.80
2023-01-03T04:01:59.385Z,4.40
2023-01-03T04:04:32.867Z,4.13
2023-01-03T04:07:02.200Z,5.73
2023-01-03T04:09:29.819Z,4.00
2023-01-03T04:11:57.041Z,5.90
2023-01-03T04:14:24.255Z,5.32
2023-01-03T04:16:51.533Z,4.38
2023-01-03T04:19:18.833Z,4.23
2023-01-03T04:21:47.370Z,4.30
2023-01-03T04:24:14.610Z,3.90
2023-01-03T04:26:41.806Z,5.57
2023-01-03T04:29:09.070Z,5.72
2023-01-03T04:31:37.584Z,5.47
2023-01-03T04:34:04.866Z,4.88
2023-01-03T04:36:32.054Z,6.13
2023-01-03T04:39:01.523Z,5.57
2023-01-03T04:41:28.927Z,6.13
2023-01-03T04:44:02.268Z,8.33
2023-01-03T04:46:30.689Z,5.50
2023-01-03T04:48:57.904Z,3.72
2023-01-03T04:51:25.620Z,3.70
2023-01-03T04:53:53.141Z,5.60
2023-01-03T04:56:26.058Z,5.93
2023-01-03T04:58:53.513Z,7.70
2023-01-03T05:01:21.329Z,3.50
2023-01-03T05:03:50.227Z,5.22
2023-01-03T05:06:17.828Z,3.53
2023-01-03T05:08:46.618Z,5.40
2023-01-03T05:11:14.369Z,5.65
2023-01-03T05:13:43.059Z,7.15
2023-01-03T05:16:12.729Z,4.65
2023-01-03T05:18:40.721Z,3.92
2023-01-03T05:21:27.320Z,4.97
2023-01-03T05:24:13.343Z,4.85
2023-01-03T05:26:41.828Z,5.68
2023-01-03T05:29:11.341Z,6.85
2023-01-03T05:31:38.728Z,6.28
2023-01-03T05:34:06.046Z,8.57
2023-01-03T05:36:33.486Z,3.67
2023-01-03T05:39:00.749Z,6.57
2023-01-03T05:41:48.226Z,4.40
2023-01-03T05:44:17.191Z,4.22
2023-01-03T05:46:44.649Z,6.23
2023-01-03T05:49:11.966Z,4.05
2023-01-03T05:51:39.220Z,5.22
2023-01-03T05:54:06.940Z,6.13
2023-01-03T05:56:34.275Z,8.10
2023-01-03T05:59:01.469Z,5.17
2023-01-03T06:01:30.071Z,6.07
2023-01-03T06:03:57.440Z,4.93
2023-01-03T06:06:24.782Z,7.00
2023-01-03T06:08:52.457Z,5.85
2023-01-03T06:11:19.685Z,7.50
2023-01-03T06:13:47.081Z,6.55
2023-01-03T06:16:35.331Z,6.85
2023-01-03T06:19:05.217Z,5.05
2023-01-03T06:21:32.493Z,5.05
2023-01-03T06:23:59.782Z,8.67
2023-01-03T06:26:27.541Z,5.72
2023-01-03T06:28:54.723Z,5.07
2023-01-03T06:31:22.059Z,5.63
2023-01-03T06:33:49.777Z,7.90
2023-01-03T06:36:20.659Z,6.03
2023-01-03T06:38:48.207Z,5.85
2023-01-03T06:41:16.511Z,6.05
2023-01-03T06:43:44.373Z,6.80
2023-01-03T06:46:31.656Z,4.57
2023-01-03T06:49:18.302Z,7.07
2023-01-03T06:52:07.492Z,6.97
2023-01-03T06:54:37.077Z,6.45
2023-01-03T06:57:04.390Z,4.85
2023-01-03T06:59:31.675Z,5.75
2023-01-03T07:01:59.086Z,6.63
2023-01-03T07:04:26.644Z,6.90
2023-01-03T07:06:55.277Z,8.60
2023-01-03T07:09:22.568Z,4.97
2023-01-03T07:11:49.872Z,5.18
2023-01-03T07:14:18.602Z,8.93
2023-01-03T07:16:47.181Z,7.75
2023-01-03T07:19:16.575Z,5.95
2023-01-03T07:21:44.822Z,8.73
2023-01-03T07:24:18.607Z,8.30
2023-01-03T07:26:45.847Z,5.90
2023-01-03T07:29:13.962Z,7.85
2023-01-03T07:31:41.815Z,8.48
2023-01-03T07:34:09.755Z,7.25
2023-01-03T07:36:37.322Z,6.30
2023-01-03T07:39:04.872Z,8.37
2023-01-03T07:41:52.176Z,5.10
2023-01-03T07:44:19.615Z,11.35
2023-01-03T07:46:46.896Z,7.00
2023-01-03T07:49:14.089Z,6.15
2023-01-03T07:51:41.301Z,5.73
2023-01-03T07:54:08.492Z,10.05
2023-01-03T07:56:37.024Z,8.48
2023-01-03T07:59:04.252Z,7.60
2023-01-03T08:01:33.081Z,5.90
2023-01-03T08:04:00.422Z,6.37
2023-01-03T08:06:27.627Z,6.88
2023-01-03T08:09:13.341Z,7.57
2023-01-03T08:12:00.624Z,8.07
2023-01-03T08:14:27.934Z,7.75
2023-01-03T08:16:55.768Z,6.80
2023-01-03T08:19:23.333Z,7.50
2023-01-03T08:21:50.560Z,6.15
2023-01-03T08:24:17.771Z,7.38
2023-01-03T08:26:46.306Z,6.43
2023-01-03T08:29:13.503Z,8.33
2023-01-03T08:31:44.389Z,5.95
2023-01-03T08:34:18.651Z,7.50
2023-01-03T08:36:51.768Z,5.88
2023-01-03T08:39:21.617Z,6.40
2023-01-03T08:41:53.095Z,8.13
2023-01-03T08:44:20.301Z,8.05
2023-01-03T08:46:50.663Z,8.80
2023-01-03T08:49:18.998Z,7.40
2023-01-03T08:51:46.719Z,6.38
2023-01-03T08:54:14.314Z,5.67
2023-01-03T08:56:41.591Z,9.45
2023-01-03T08:59:10.115Z,7.32
2023-01-03T09:01:37.432Z,8.98
2023-01-03T09:04:05.544Z,5.68
2023-01-03T09:06:34.071Z,5.83
2023-01-03T09:09:04.451Z,4.97
2023-01-03T09:11:31.696Z,5.70
2023-01-03T09:13:59.192Z,5.78
2023-01-03T09:16:27.838Z,5.05
2023-01-03T09:18:55.199Z,9.33
2023-01-03T09:21:22.536Z,7.32
2023-01-03T09:23:49.785Z,6.20
2023-01-03T09:26:17.025Z,5.50
2023-01-03T09:28:44.221Z,5.32
2023-01-03T09:31:11.647Z,6.20
2023-01-03T09:33:40.241Z,6.28
2023-01-03T09:36:07.977Z,5.63
2023-01-03T09:38:35.311Z,5.78
2023-01-03T09:41:06.143Z,8.57
2023-01-03T09:43:37.041Z,5.17
2023-01-03T09:46:05.913Z,5.88
2023-01-03T09:48:35.817Z,5.25
2023-01-03T09:51:29.840Z,8.27
2023-01-03T09:54:17.192Z,5.32
2023-01-03T09:57:02.989Z,8.80
2023-01-03T09:59:54.541Z,6.95
2023-01-03T10:03:00.331Z,6.30
2023-01-03T10:05:38.943Z,6.10
2023-01-03T10:08:20.197Z,6.53
2023-01-03T10:10:57.434Z,4.40
2023-01-03T10:13:40.179Z,5.25
2023-01-03T10:16:15.687Z,6.38
2023-01-03T10:18:55.457Z,5.25
2023-01-03T10:21:29.301Z,6.63
2023-01-03T10:23:58.374Z,6.70
2023-01-03T10:26:33.408Z,5.45
2023-01-03T10:29:01.584Z,5.72
2023-01-03T10:31:45.063Z,6.57
2023-01-03T10:34:12.401Z,5.43
2023-01-03T10:36:39.641Z,5.90
2023-01-03T10:39:10.292Z,6.60
2023-01-03T10:41:43.385Z,5.85
2023-01-03T10:44:24.582Z,8.45
2023-01-03T10:46:54.149Z,6.43
2023-01-03T10:49:31.187Z,5.87
2023-01-03T10:52:02.710Z,8.13
2023-01-03T10:54:44.533Z,7.10
2023-01-03T10:57:33.819Z,7.00
2023-01-03T11:00:01.038Z,7.55
2023-01-03T11:02:28.449Z,8.30
2023-01-03T11:05:12.299Z,8.50
2023-01-03T11:07:43.070Z,8.00
2023-01-03T11:10:17.595Z,8.95
2023-01-03T11:12:46.792Z,7.28
2023-01-03T11:15:19.381Z,8.37
2023-01-03T11:17:54.451Z,12.07
2023-01-03T11:20:26.014Z,7.25
2023-01-03T11:22:57.583Z,13.50
2023-01-03T11:25:39.093Z,8.68
2023-01-03T11:28:20.775Z,7.37
2023-01-03T11:30:56.797Z,7.43
2023-01-03T11:33:46.040Z,8.85
2023-01-03T11:36:24.507Z,11.13
2023-01-03T11:39:02.936Z,8.68
2023-01-03T11:41:48.908Z,9.90
2023-01-03T11:44:53.665Z,10.57
2023-01-03T11:47:30.796Z,7.18
2023-01-03T11:50:11.942Z,6.85
2023-01-03T11:52:45.158Z,7.80
2023-01-03T11:55:51.214Z,7.23
2023-01-03T11:58:38.944Z,8.25
2023-01-03T12:01:19.885Z,8.32
2023-01-03T12:04:03.662Z,8.10
2023-01-03T12:06:37.141Z,8.57
2023-01-03T12:09:20.813Z,7.67
2023-01-03T12:12:13.105Z,8.23
2023-01-03T12:14:46.267Z,7.95
2023-01-03T12:17:17.908Z,6.70
2023-01-03T12:19:50.042Z,9.52
2023-01-03T12:22:24.391Z,11.93
2023-01-03T12:24:59.203Z,9.27
2023-01-03T12:27:37.125Z,8.30
2023-01-03T12:30:16.990Z,13.73
2023-01-03T12:32:48.174Z,12.20
2023-01-03T12:35:27.338Z,9.80
2023-01-03T12:37:57.646Z,7.68
2023-01-03T12:40:34.054Z,12.32
2023-01-03T12:43:09.666Z,12.10
2023-01-03T12:45:50.129Z,10.15
2023-01-03T12:48:45.175Z,6.80
2023-01-03T12:51:16.274Z,9.20
2023-01-03T12:53:47.418Z,9.15
2023-01-03T12:56:49.096Z,8.80
2023-01-03T12:59:39.104Z,8.35
2023-01-03T13:02:21.818Z,14.67
2023-01-03T13:04:52.209Z,9.10
2023-01-03T13:07:25.040Z,7.13
2023-01-03T13:10:01.008Z,10.48
2023-01-03T13:12:31.414Z,10.63
2023-01-03T13:15:13.271Z,10.63
2023-01-03T13:17:45.563Z,11.45
2023-01-03T13:20:27.401Z,8.80
2023-01-03T13:22:55.030Z,10.98
2023-01-03T13:25:44.100Z,7.32
2023-01-03T13:28:32.134Z,6.63
2023-01-03T13:31:44.171Z,9.65
2023-01-03T13:34:17.326Z,8.80
2023-01-03T13:37:12.038Z,8.45
2023-01-03T13:39:40.199Z,6.53
2023-01-03T13:42:20.889Z,7.30
2023-01-03T13:44:48.250Z,13.38
2023-01-03T13:47:24.433Z,12.63
2023-01-03T13:49:54.139Z,10.05
2023-01-03T13:52:38.689Z,9.25
2023-01-03T13:55:32.429Z,11.77
2023-01-03T13:58:00.078Z,7.13
2023-01-03T14:00:29.491Z,12.32
2023-01-03T14:03:33.234Z,12.00
2023-01-03T14:06:42.349Z,8.18
2023-01-03T14:09:31.320Z,8.53
2023-01-03T14:12:13.400Z,7.75
2023-01-03T14:14:41.948Z,9.57
2023-01-03T14:17:17.388Z,8.10
2023-01-03T14:19:50.889Z,9.13
2023-01-03T14:22:29.878Z,9.27
2023-01-03T14:24:59.730Z,6.38
2023-01-03T14:27:32.173Z,13.38
2023-01-03T14:30:00.678Z,10.13
2023-01-03T14:32:34.458Z,9.15
2023-01-03T14:35:02.199Z,11.43
2023-01-03T14:37:33.058Z,8.23
2023-01-03T14:40:02.765Z,7.20
2023-01-03T14:42:30.428Z,10.30
2023-01-03T14:44:59.862Z,8.05
2023-01-03T14:47:33.130Z,6.73
2023-01-03T14:50:01.031Z,7.95
2023-01-03T14:52:33.835Z,8.63
2023-01-03T14:55:04.984Z,7.82
2023-01-03T14:57:36.475Z,9.80
2023-01-03T15:00:06.289Z,8.07
2023-01-03T15:02:40.189Z,9.27
2023-01-03T15:05:24.291Z,8.20
2023-01-03T15:07:53.512Z,10.77
2023-01-03T15:10:29.881Z,9.75
2023-01-03T15:13:04.245Z,9.80
2023-01-03T15:15:38.362Z,9.18
2023-01-03T15:18:09.709Z,9.18
2023-01-03T15:20:39.778Z,10.48
2023-01-03T15:23:21.003Z,8.38
2023-01-03T15:25:48.750Z,9.40
2023-01-03T15:28:25.169Z,8.52
2023-01-03T15:30:54.176Z,10.10
2023-01-03T15:33:25.010Z,12.25
2023-01-03T15:35:54.700Z,11.52
2023-01-03T15:38:32.432Z,10.03
2023-01-03T15:41:01.338Z,11.48
2023-01-03T15:43:33.073Z,13.30
2023-01-03T15:46:03.976Z,15.07
2023-01-03T15:48:35.081Z,14.77
2023-01-03T15:51:03.710Z,15.90
2023-01-03T15:53:40.984Z,11.45
2023-01-03T15:56:17.663Z,10.45
2023-01-03T15:58:45.846Z,12.05
2023-01-03T16:01:13.824Z,13.18
2023-01-03T16:03:41.365Z,14.70
2023-01-03T16:06:08.748Z,14.45
2023-01-03T16:08:38.999Z,12.50
2023-01-03T16:11:15.559Z,10.43
2023-01-03T16:13:49.309Z,14.25
2023-01-03T16:16:26.285Z,11.80
2023-01-03T16:18:54.576Z,14.50
2023-01-03T16:21:22.746Z,13.23
2023-01-03T16:23:53.333Z,12.68
2023-01-03T16:26:20.913Z,11.98
2023-01-03T16:28:48.398Z,12.70
2023-01-03T16:31:21.667Z,13.30
2023-01-03T16:33:50.765Z,15.95
2023-01-03T16:36:26.442Z,15.73
2023-01-03T16:38:55.014Z,16.02
2023-01-03T16:41:22.535Z,16.27
2023-01-03T16:43:49.803Z,12.55
2023-01-03T16:46:20.876Z,14.73
2023-01-03T16:48:52.901Z,15.85
2023-01-03T16:51:24.537Z,16.67
2023-01-03T16:53:53.490Z,16.40
2023-01-03T16:56:22.296Z,12.27
2023-01-03T16:58:50.142Z,17.85
2023-01-03T17:01:17.696Z,15.02
2023-01-03T17:03:45.135Z,13.73
2023-01-03T17:06:35.100Z,14.73
2023-01-03T17:09:08.083Z,11.98
2023-01-03T17:11:36.788Z,13.40
2023-01-03T17:14:04.316Z,20.98
2023-01-03T17:16:33.010Z,17.50
2023-01-03T17:19:00.291Z,14.87
2023-01-03T17:21:29.259Z,16.40
2023-01-03T17:24:00.256Z,21.13
2023-01-03T17:26:30.452Z,14.68
2023-01-03T17:29:00.803Z,18.65
2023-01-03T17:31:28.735Z,16.80
2023-01-03T17:33:56.025Z,20.65
2023-01-03T17:36:25.737Z,17.15
2023-01-03T17:38:54.948Z,17.30
2023-01-03T17:41:24.024Z,18.00
2023-01-03T17:43:51.421Z,18.00
2023-01-03T17:46:40.955Z,18.67
2023-01-03T17:49:25.043Z,16.52
2023-01-03T17:51:54.989Z,19.98
2023-01-03T17:54:25.751Z,21.55
2023-01-03T17:56:53.074Z,20.03
2023-01-03T17:59:20.301Z,16.65
2023-01-03T18:01:52.115Z,21.35
2023-01-03T18:04:19.514Z,20.08
2023-01-03T18:06:49.837Z,20.30
2023-01-03T18:09:17.180Z,17.93
2023-01-03T18:11:44.419Z,21.88
2023-01-03T18:14:14.133Z,19.90
2023-01-03T18:16:41.705Z,25.60
2023-01-03T18:19:10.821Z,25.27
2023-01-03T18:21:38.678Z,22.47
2023-01-03T18:24:18.021Z,21.52
2023-01-03T18:26:48.900Z,21.50
2023-01-03T18:29:17.676Z,25.27
2023-01-03T18:31:46.321Z,24.90
2023-01-03T18:34:15.199Z,26.27
2023-01-03T18:36:45.463Z,21.63
2023-01-03T18:39:14.695Z,24.25
2023-01-03T18:41:42.875Z,23.83
2023-01-03T18:44:19.305Z,24.38
2023-01-03T18:46:47.697Z,19.27
2023-01-03T18:49:17.383Z,22.23
2023-01-03T18:51:45.795Z,22.10
2023-01-03T18:54:18.119Z,21.38
2023-01-03T18:56:45.599Z,21.55
2023-01-03T18:59:19.391Z,21.93
2023-01-03T19:01:47.076Z,20.80
2023-01-03T19:04:15.810Z,21.35
2023-01-03T19:06:45.341Z,20.58
2023-01-03T19:09:18.234Z,20.48
2023-01-03T19:11:45.922Z,21.03
2023-01-03T19:14:13.954Z,22.40
2023-01-03T19:16:41.488Z,25.20
2023-01-03T19:19:10.346Z,23.13
2023-01-03T19:21:41.682Z,20.85
2023-01-03T19:24:22.225Z,21.23
2023-01-03T19:26:52.953Z,21.45
2023-01-03T19:29:22.262Z,22.13
2023-01-03T19:31:51.348Z,24.42
2023-01-03T19:34:19.975Z,21.70
2023-01-03T19:36:49.455Z,23.57
2023-01-03T19:39:24.005Z,21.67
2023-01-03T19:42:13.634Z,22.17
2023-01-03T19:44:41.499Z,20.08
2023-01-03T19:47:13.145Z,21.48
2023-01-03T19:49:40.835Z,20.13
2023-01-03T19:52:09.661Z,21.52
2023-01-03T19:54:36.915Z,21.23
2023-01-03T19:57:04.589Z,22.02
2023-01-03T19:59:34.730Z,21.48
2023-01-03T20:04:50.670Z,22.92
2023-01-03T20:07:19.307Z,23.67
2023-01-03T20:09:46.576Z,19.27
2023-01-03T20:12:17.722Z,19.05
2023-01-03T20:14:49.265Z,18.57
2023-01-03T20:17:20.506Z,24.10
2023-01-03T20:19:47.916Z,20.95
2023-01-03T20:22:37.204Z,21.73
2023-01-03T20:25:04.710Z,21.83
2023-01-03T20:27:32.027Z,24.97
2023-01-03T20:29:59.340Z,25.30
2023-01-03T20:32:26.575Z,21.00
2023-01-03T20:34:53.772Z,25.00
2023-01-03T20:37:21.820Z,24.42
2023-01-03T20:39:49.188Z,26.00
2023-01-03T20:42:21.833Z,26.10
2023-01-03T20:44:49.322Z,21.27
2023-01-03T20:47:22.454Z,24.60
2023-01-03T20:49:50.205Z,24.95
2023-01-03T20:52:18.188Z,23.67
2023-01-03T20:54:45.378Z,24.08
2023-01-03T20:57:15.336Z,23.55
2023-01-03T20:59:44.065Z,27.50
2023-01-03T21:02:11.994Z,22.02
2023-01-03T21:04:39.895Z,23.00
2023-01-03T21:07:14.903Z,24.55
2023-01-03T21:09:42.107Z,27.48
2023-01-03T21:12:09.377Z,22.27
2023-01-03T21:14:36.610Z,23.77
2023-01-03T21:17:05.557Z,20.57
2023-01-03T21:19:32.793Z,21.40
2023-01-03T21:22:00.078Z,21.52
2023-01-03T21:24:29.281Z,20.98
2023-01-03T21:26:56.512Z,23.17
2023-01-03T21:29:23.751Z,22.00
2023-01-03T21:31:51.009Z,23.50
2023-01-03T21:34:21.143Z,29.10
2023-01-03T21:36:49.752Z,26.00
2023-01-03T21:39:17.077Z,23.92
2023-01-03T21:42:02.856Z,23.70
2023-01-03T21:44:30.059Z,22.63
2023-01-03T21:46:57.344Z,20.70
2023-01-03T21:49:25.866Z,20.98
2023-01-03T21:51:53.327Z,18.35
2023-01-03T21:54:20.546Z,23.00
2023-01-03T21:56:47.775Z,20.15
2023-01-03T21:59:16.208Z,22.05
2023-01-03T22:02:03.080Z,21.08
2023-01-03T22:04:32.209Z,16.58
2023-01-03T22:07:02.679Z,21.10
2023-01-03T22:09:49.034Z,19.00
2023-01-03T22:12:17.188Z,17.15
2023-01-03T22:14:44.610Z,18.48
2023-01-03T22:17:11.936Z,19.48
2023-01-03T22:19:40.491Z,17.70
2023-01-03T22:22:07.846Z,16.08
2023-01-03T22:24:35.222Z,14.07
2023-01-03T22:27:02.578Z,16.10
2023-01-03T22:29:29.802Z,19.02
2023-01-03T22:31:57.131Z,15.90
2023-01-03T22:34:24.483Z,16.85
2023-01-03T22:36:53.056Z,18.75
2023-01-03T22:39:20.261Z,15.90
2023-01-03T22:41:47.467Z,15.68
2023-01-03T22:44:14.660Z,15.40
2023-01-03T22:46:41.866Z,14.95
2023-01-03T22:49:09.145Z,15.18
2023-01-03T22:51:36.344Z,13.23
2023-01-03T22:54:05.169Z,12.90
2023-01-03T22:56:32.387Z,13.77
2023-01-03T22:59:00.955Z,15.32
2023-01-03T23:01:28.613Z,14.88
2023-01-03T23:04:00.077Z,14.52
2023-01-03T23:06:29.859Z,15.68
2023-01-03T23:08:57.697Z,12.20
2023-01-03T23:11:46.743Z,13.68
2023-01-03T23:14:16.336Z,15.52
2023-01-03T23:16:43.761Z,15.15
2023-01-03T23:19:13.071Z,13.70
2023-01-03T23:21:40.673Z,15.03
2023-01-03T23:24:12.886Z,14.38
2023-01-03T23:26:42.156Z,13.90
2023-01-03T23:29:10.319Z,15.35
2023-01-03T23:31:37.899Z,12.30
2023-01-03T23:34:05.113Z,13.83
2023-01-03T23:36:32.333Z,11.95
2023-01-03T23:38:59.527Z,16.45
2023-01-03T23:41:26.925Z,15.75
2023-01-03T23:43:55.933Z,14.65
2023-01-03T23:46:24.585Z,12.30
2023-01-03T23:48:54.337Z,14.13
2023-01-03T23:51:21.552Z,13.60
2023-01-03T23:53:48.805Z,15.70
2023-01-03T23:56:18.372Z,15.15
2023-01-03T23:58:45.976Z,12.63
